KTVI/TVI METAR and TAF weather

Enter ICAO airport designator
Station Type Date Time Source
KTVI METAR 2021/04/13 22:35 UTC NOAA

KTVI 132235Z AUTO 00000KT 10SM CLR 28/12 A3003 RMK AO2


Station Type Date Time Source
KTVI Decoded METAR 2021/04/13 22:35 UTC NOAA

Thomasville, GA, United States (KTVI) 30-54-06N 083-52-53W
Apr 13, 2021 - 06:35 PM EDT / 2021.04.13 2235 UTC
Wind: Calm:0
Visibility: 10 mile(s):0
Sky conditions: clear
Temperature: 82 F (28 C)
Dew Point: 53 F (12 C)
Relative Humidity: 37%
Pressure (altimeter): 30.03 in. Hg (1016 hPa)
ob: KTVI 132235Z AUTO 00000KT 10SM CLR 28/12 A3003 RMK AO2
cycle: 22

Station Type Date Time Source
KTVI TAF UTC NOAA

Error!

Example: see airport list